createdAt,value
2023-04-21T00:00:56.372Z,25.7
2023-04-21T00:03:58.460Z,27.8
2023-04-21T00:07:00.241Z,26.6
2023-04-21T00:10:02.240Z,29.7
2023-04-21T00:13:04.175Z,29
2023-04-21T00:16:06.163Z,28.5
2023-04-21T00:19:08.633Z,28.5
2023-04-21T00:22:10.055Z,31.5
2023-04-21T00:25:12.023Z,29.7
2023-04-21T00:28:13.981Z,31.8
2023-04-21T00:31:15.974Z,29.2
2023-04-21T00:34:17.933Z,27.7
2023-04-21T00:37:19.848Z,30.7
2023-04-21T00:40:21.793Z,28.1
2023-04-21T00:43:23.775Z,29
2023-04-21T00:46:25.755Z,28.5
2023-04-21T00:49:27.698Z,31.4
2023-04-21T00:52:29.649Z,30.7
2023-04-21T00:55:31.591Z,32.6
2023-04-21T00:58:33.565Z,31.4
2023-04-21T01:01:35.528Z,31.7
2023-04-21T01:04:37.509Z,29.8
2023-04-21T01:07:39.428Z,29
2023-04-21T01:10:41.487Z,30.7
2023-04-21T01:13:43.356Z,28.2
2023-04-21T01:16:45.358Z,31.6
2023-04-21T01:19:47.276Z,32.4
2023-04-21T01:22:49.204Z,35.1
2023-04-21T01:25:51.172Z,33.3
2023-04-21T01:28:53.126Z,34.5
2023-04-21T01:31:55.103Z,32.5
2023-04-21T01:34:57.046Z,31.3
2023-04-21T01:37:59.051Z,35.1
2023-04-21T01:41:00.985Z,32.7
2023-04-21T01:44:02.996Z,31.8
2023-04-21T01:47:04.947Z,37.3
2023-04-21T01:50:06.913Z,35.6
2023-04-21T01:53:08.864Z,37.9
2023-04-21T01:56:10.815Z,36.2
2023-04-21T01:59:12.786Z,37.8
2023-04-21T02:02:14.843Z,38
2023-04-21T02:05:16.693Z,37.4
2023-04-21T02:08:18.688Z,37.8
2023-04-21T02:11:20.664Z,36.1
2023-04-21T02:14:22.712Z,34.8
2023-04-21T02:17:24.719Z,35.3
2023-04-21T02:20:26.674Z,33.9
2023-04-21T02:23:28.630Z,38
2023-04-21T02:26:30.590Z,34
2023-04-21T02:29:32.577Z,37
2023-04-21T02:32:34.609Z,40.4
2023-04-21T02:35:36.502Z,38.4
2023-04-21T02:38:38.471Z,36.4
2023-04-21T02:41:40.423Z,35.1
2023-04-21T02:44:42.413Z,35.3
2023-04-21T02:47:44.394Z,37.1
2023-04-21T02:50:46.295Z,35.3
2023-04-21T02:53:48.247Z,35.9
2023-04-21T02:56:50.202Z,34.3
2023-04-21T02:59:52.159Z,35.6
2023-04-21T03:02:54.236Z,39
2023-04-21T03:05:56.050Z,35.8
2023-04-21T03:08:58.248Z,35.2
2023-04-21T03:12:00.015Z,35.8
2023-04-21T03:15:02.011Z,36.1
2023-04-21T03:18:03.967Z,34.6
2023-04-21T03:21:05.902Z,32.9
2023-04-21T03:24:07.870Z,30.3
2023-04-21T03:27:10.954Z,32.6
2023-04-21T03:30:11.800Z,30
2023-04-21T03:33:13.753Z,32.7
2023-04-21T03:36:15.723Z,32.8
2023-04-21T03:39:19.915Z,33.8
2023-04-21T03:42:19.720Z,33.7
2023-04-21T03:45:21.678Z,32.6
2023-04-21T03:48:23.649Z,33.5
2023-04-21T03:51:25.598Z,35.3
2023-04-21T03:54:27.565Z,35.8
2023-04-21T03:57:29.498Z,35.2
2023-04-21T04:00:31.461Z,34.7
2023-04-21T04:03:33.480Z,34.5
2023-04-21T04:06:35.384Z,35.9
2023-04-21T04:09:37.590Z,37.1
2023-04-21T04:12:39.336Z,36.2
2023-04-21T04:15:41.351Z,34.9
2023-04-21T04:18:43.262Z,34.6
2023-04-21T04:21:46.058Z,33.5
2023-04-21T04:24:47.210Z,33.5
2023-04-21T04:27:49.134Z,31.9
2023-04-21T04:30:51.123Z,33.4
2023-04-21T04:33:55.100Z,34.3
2023-04-21T04:36:55.029Z,33.5
2023-04-21T04:39:57.013Z,32.6
2023-04-21T04:42:59.018Z,32.9
2023-04-21T04:46:00.988Z,31.4
2023-04-21T04:49:02.976Z,31.7
2023-04-21T04:52:04.903Z,31.5
2023-04-21T04:55:06.875Z,32.8
2023-04-21T04:58:08.824Z,30.9
2023-04-21T05:01:10.798Z,32.8
2023-04-21T05:04:12.848Z,32.9
2023-04-21T05:07:14.715Z,32.7
2023-04-21T05:10:16.676Z,30
2023-04-21T05:13:18.628Z,32.3
2023-04-21T05:16:20.595Z,31.2
2023-04-21T05:19:22.567Z,30.3
2023-04-21T05:22:24.509Z,33.7
2023-04-21T05:25:26.472Z,30.6
2023-04-21T05:28:28.430Z,32.7
2023-04-21T05:31:30.384Z,31.9
2023-04-21T05:34:32.345Z,33.9
2023-04-21T05:37:34.306Z,34.9
2023-04-21T05:40:36.292Z,33.9
2023-04-21T05:43:38.395Z,32.4
2023-04-21T05:46:40.252Z,31.7
2023-04-21T05:49:42.178Z,29
2023-04-21T05:52:44.125Z,32
2023-04-21T05:55:46.075Z,32.5
2023-04-21T05:58:48.048Z,28.9
2023-04-21T06:01:50.059Z,29.6
2023-04-21T06:04:52.089Z,32.1
2023-04-21T06:07:53.943Z,31.4
2023-04-21T06:10:55.888Z,29.2
2023-04-21T06:13:57.847Z,30.9
2023-04-21T06:16:59.818Z,31.4
2023-04-21T06:20:01.763Z,28.4
2023-04-21T06:23:03.747Z,27.1
2023-04-21T06:26:05.707Z,28.4
2023-04-21T06:29:07.671Z,30.2
2023-04-21T06:32:09.714Z,29.5
2023-04-21T06:35:11.632Z,28
2023-04-21T06:38:13.653Z,27.9
2023-04-21T06:41:15.734Z,27.5
2023-04-21T06:44:18.294Z,24.8
2023-04-21T06:47:19.695Z,24.7
2023-04-21T06:50:21.616Z,25.6
2023-04-21T06:53:23.568Z,26
2023-04-21T06:56:25.540Z,24.6
2023-04-21T06:59:27.496Z,21.8
2023-04-21T07:02:29.533Z,17.7
2023-04-21T07:05:31.450Z,19.5
2023-04-21T07:08:33.397Z,20.6
2023-04-21T07:11:35.399Z,20.9
2023-04-21T07:14:37.321Z,21.8
2023-04-21T07:17:39.299Z,19.7
2023-04-21T07:20:41.286Z,22
2023-04-21T07:23:43.199Z,21.1
2023-04-21T07:26:45.160Z,22
2023-04-21T07:29:47.129Z,24
2023-04-21T07:32:49.178Z,21.3
2023-04-21T07:35:51.086Z,23.9
2023-04-21T07:38:53.061Z,21.3
2023-04-21T07:41:55.000Z,18.2
2023-04-21T07:44:56.959Z,22.4
2023-04-21T07:47:58.938Z,17.5
2023-04-21T07:51:00.926Z,16.7
2023-04-21T07:54:02.836Z,18.9
2023-04-21T07:57:04.803Z,17.7
2023-04-21T08:00:06.807Z,18.8
2023-04-21T08:03:08.971Z,19
2023-04-21T08:06:10.916Z,19.5
2023-04-21T08:09:12.627Z,20.7
2023-04-21T08:12:14.592Z,20.4
2023-04-21T08:15:16.574Z,18.2
2023-04-21T08:18:20.579Z,21
2023-04-21T08:21:20.507Z,22.4
2023-04-21T08:24:22.685Z,22.7
2023-04-21T08:27:24.487Z,22.3
2023-04-21T08:30:26.391Z,21.4
2023-04-21T08:33:28.358Z,21.3
2023-04-21T08:36:30.792Z,20.2
2023-04-21T08:39:32.288Z,21
2023-04-21T08:42:34.251Z,22.3
2023-04-21T08:45:36.241Z,21.6
2023-04-21T08:48:38.189Z,19.3
2023-04-21T08:51:40.143Z,20.4
2023-04-21T08:54:42.114Z,20.7
2023-04-21T08:57:44.067Z,21.2
2023-04-21T09:00:46.034Z,17.4
2023-04-21T09:03:48.087Z,18.6
2023-04-21T09:06:50.011Z,18.1
2023-04-21T09:09:51.911Z,19.3
2023-04-21T09:12:53.858Z,17.7
2023-04-21T09:15:55.825Z,15.2
2023-04-21T09:18:57.857Z,20.4
2023-04-21T09:21:59.807Z,19.2
2023-04-21T09:25:01.774Z,19.5
2023-04-21T09:28:04.060Z,21.4
2023-04-21T09:31:05.721Z,20.3
2023-04-21T09:34:07.680Z,21.4
2023-04-21T09:37:09.650Z,22.1
2023-04-21T09:40:11.739Z,19.4
2023-04-21T09:43:13.608Z,19.2
2023-04-21T09:46:15.625Z,17.9
2023-04-21T09:49:17.601Z,19.6
2023-04-21T09:52:19.901Z,19.3
2023-04-21T09:55:21.528Z,17.2
2023-04-21T09:58:23.520Z,19.8
2023-04-21T10:01:25.558Z,16.8
2023-04-21T10:04:27.887Z,18.7
2023-04-21T10:07:29.487Z,18.8
2023-04-21T10:10:31.437Z,15.7
2023-04-21T10:13:33.406Z,17.1
2023-04-21T10:16:35.426Z,16.2
2023-04-21T10:19:37.382Z,14
2023-04-21T10:22:39.364Z,16
2023-04-21T10:25:41.308Z,15.9
2023-04-21T10:28:43.346Z,17.1
2023-04-21T10:31:45.432Z,17.3
2023-04-21T10:34:47.309Z,17.8
2023-04-21T10:37:49.251Z,15.9
2023-04-21T10:40:51.212Z,14.5
2023-04-21T10:43:53.175Z,15.1
2023-04-21T10:46:55.235Z,17.2
2023-04-21T10:49:57.140Z,16
2023-04-21T10:52:59.128Z,16.1
2023-04-21T10:56:01.115Z,13.7
2023-04-21T10:59:03.092Z,16.2
2023-04-21T11:02:05.092Z,13.8
2023-04-21T11:05:07.037Z,15.3
2023-04-21T11:08:08.977Z,15.6
2023-04-21T11:11:10.955Z,12.9
2023-04-21T11:14:12.931Z,14
2023-04-21T11:17:15.230Z,15.2
2023-04-21T11:20:17.016Z,14.5
2023-04-21T11:23:18.950Z,13.6
2023-04-21T11:26:20.915Z,14.4
2023-04-21T11:29:22.895Z,13
2023-04-21T11:32:24.871Z,14.1
2023-04-21T11:35:26.815Z,12.1
2023-04-21T11:38:28.793Z,12.3
2023-04-21T11:41:30.733Z,14.7
2023-04-21T11:44:32.808Z,13.4
2023-04-21T11:47:34.741Z,13
2023-04-21T11:50:36.679Z,14.9
2023-04-21T11:53:38.636Z,14.1
2023-04-21T11:56:40.616Z,12.6
2023-04-21T11:59:42.589Z,14.9
2023-04-21T12:02:44.660Z,12.6
2023-04-21T12:05:46.528Z,14.6
2023-04-21T12:08:48.484Z,12.5
2023-04-21T12:11:50.454Z,12
2023-04-21T12:14:52.467Z,11.3
2023-04-21T12:17:54.496Z,12.1
2023-04-21T12:20:56.421Z,11.9
2023-04-21T12:23:58.390Z,11.7
2023-04-21T12:27:00.445Z,11.8
2023-04-21T12:30:02.400Z,11.2
2023-04-21T12:33:04.457Z,10.9
2023-04-21T12:36:06.345Z,9.8
2023-04-21T12:39:08.327Z,11.1
2023-04-21T12:42:10.464Z,11.7
2023-04-21T12:45:12.284Z,12.2
2023-04-21T12:48:14.252Z,11.2
2023-04-21T12:51:16.209Z,9.9
2023-04-21T12:54:18.151Z,11.4
2023-04-21T12:57:20.121Z,10.4
2023-04-21T13:00:22.119Z,10.5
2023-04-21T13:03:24.153Z,10.7
2023-04-21T13:06:26.036Z,9.1
2023-04-21T13:09:28.058Z,9.9
2023-04-21T13:12:29.987Z,9.2
2023-04-21T13:15:31.958Z,7.5
2023-04-21T13:18:33.988Z,8.4
2023-04-21T13:21:35.951Z,7.9
2023-04-21T13:24:38.062Z,8.6
2023-04-21T13:27:40.047Z,10.5
2023-04-21T13:30:41.998Z,9.3
2023-04-21T13:33:43.956Z,9.6
2023-04-21T13:36:45.959Z,9
2023-04-21T13:39:47.889Z,9.2
2023-04-21T13:42:49.838Z,7.6
2023-04-21T13:45:51.823Z,7.6
2023-04-21T13:48:53.771Z,8
2023-04-21T13:51:55.728Z,7.6
2023-04-21T13:54:57.683Z,6.9
2023-04-21T13:57:59.637Z,7.6
2023-04-21T14:01:01.606Z,8.1
2023-04-21T14:04:03.663Z,8.2
2023-04-21T14:07:05.548Z,6.7
2023-04-21T14:10:07.499Z,6.4
2023-04-21T14:13:12.722Z,7.5
2023-04-21T14:16:11.425Z,6.9
2023-04-21T14:19:13.390Z,7.2
2023-04-21T14:22:15.309Z,6.6
2023-04-21T14:25:17.304Z,6.3
2023-04-21T14:28:19.207Z,5.4
2023-04-21T14:31:21.931Z,7.4
2023-04-21T14:34:23.121Z,6.3
2023-04-21T14:37:25.111Z,5.9
2023-04-21T14:40:27.073Z,6
2023-04-21T14:43:29.016Z,5.9
2023-04-21T14:46:31.076Z,5.7
2023-04-21T14:49:33.096Z,5.7
2023-04-21T14:52:34.917Z,7.1
2023-04-21T14:55:36.836Z,5.9
2023-04-21T14:58:38.790Z,5.4
2023-04-21T15:01:40.810Z,5.7
2023-04-21T15:04:42.759Z,6.3
2023-04-21T15:07:44.706Z,5.6
2023-04-21T15:10:46.635Z,5.9
2023-04-21T15:13:48.616Z,5.2
2023-04-21T15:16:50.588Z,6.7
2023-04-21T15:19:52.512Z,6.2
2023-04-21T15:22:54.505Z,6.8
2023-04-21T15:25:56.477Z,5.8
2023-04-21T15:28:58.410Z,6.1
2023-04-21T15:32:00.409Z,6.5
2023-04-21T15:35:02.346Z,6.3
2023-04-21T15:38:04.317Z,5.9
2023-04-21T15:41:06.359Z,6.1
2023-04-21T15:44:08.247Z,5.4
2023-04-21T15:47:10.216Z,5.7
2023-04-21T15:50:12.185Z,5.5
2023-04-21T15:53:14.161Z,5.5
2023-04-21T15:56:16.100Z,5.1
2023-04-21T15:59:18.053Z,5.7
2023-04-21T16:02:20.130Z,4.9
2023-04-21T16:05:23.870Z,5.9
2023-04-21T16:08:24.158Z,6.1
2023-04-21T16:11:26.083Z,5.7
2023-04-21T16:14:30.224Z,5.6
2023-04-21T16:17:30.082Z,5.4
2023-04-21T16:20:32.017Z,5
2023-04-21T16:23:34.035Z,5.7
2023-04-21T16:26:35.976Z,5.1
2023-04-21T16:29:38.002Z,5.4
2023-04-21T16:32:39.970Z,4.9
2023-04-21T16:35:41.985Z,5
2023-04-21T16:38:43.816Z,4.2
2023-04-21T16:41:45.866Z,4.5
2023-04-21T16:44:47.815Z,5.2
2023-04-21T16:47:49.804Z,4.8
2023-04-21T16:50:51.701Z,4.8
2023-04-21T16:53:53.669Z,5.5
2023-04-21T16:56:55.629Z,5.7
2023-04-21T16:59:57.586Z,4.6
2023-04-21T17:02:59.665Z,5.4
2023-04-21T17:06:01.495Z,5.2
2023-04-21T17:09:03.468Z,5.1
2023-04-21T17:12:05.453Z,5.6
2023-04-21T17:15:07.463Z,4.5
2023-04-21T17:18:09.417Z,4.8
2023-04-21T17:21:11.350Z,4.6
2023-04-21T17:24:13.372Z,4.5
2023-04-21T17:27:15.272Z,4.4
2023-04-21T17:30:17.270Z,5
2023-04-21T17:33:19.297Z,4.1
2023-04-21T17:36:21.194Z,4.2
2023-04-21T17:39:23.156Z,3.3
2023-04-21T17:42:25.146Z,3.9
2023-04-21T17:45:27.098Z,4.1
2023-04-21T17:48:29.037Z,4.1
2023-04-21T17:51:31.053Z,3.9
2023-04-21T17:54:33.015Z,3.6
2023-04-21T17:57:35.032Z,3.9
2023-04-21T18:00:37.007Z,4
2023-04-21T18:03:39.049Z,4.5
2023-04-21T18:06:40.967Z,3.5
2023-04-21T18:09:42.909Z,2.9
2023-04-21T18:12:44.862Z,2.5
2023-04-21T18:15:46.854Z,2.2
2023-04-21T18:18:48.826Z,1.8
2023-04-21T18:21:50.845Z,1.9
2023-04-21T18:24:52.717Z,1.5
2023-04-21T18:27:54.693Z,1.5
2023-04-21T18:30:56.684Z,1.7
2023-04-21T18:33:58.635Z,1.6
2023-04-21T18:37:00.646Z,1.6
2023-04-21T18:40:02.614Z,1.6
2023-04-21T18:43:04.560Z,1.4
2023-04-21T18:46:06.684Z,1.6
2023-04-21T18:49:08.489Z,2.5
2023-04-21T18:52:10.444Z,2.6
2023-04-21T18:55:12.420Z,2.1
2023-04-21T18:58:14.349Z,2.6
2023-04-21T19:01:16.386Z,2.8
2023-04-21T19:04:18.413Z,3
2023-04-21T19:07:20.229Z,2.5
2023-04-21T19:10:22.171Z,2.3
2023-04-21T19:13:24.150Z,2.5
2023-04-21T19:16:26.182Z,2.4
2023-04-21T19:19:28.071Z,2.7
2023-04-21T19:22:30.038Z,2.9
2023-04-21T19:25:31.996Z,2.9
2023-04-21T19:28:33.959Z,2.5
2023-04-21T19:31:35.928Z,2.8
2023-04-21T19:34:38.066Z,2.9
2023-04-21T19:37:39.842Z,3.4
2023-04-21T19:40:41.805Z,3.4
2023-04-21T19:43:43.747Z,3
2023-04-21T19:46:45.776Z,3.5
2023-04-21T19:49:47.660Z,3.3
2023-04-21T19:52:49.612Z,3.2
2023-04-21T19:55:52.601Z,3.3
2023-04-21T19:58:53.514Z,3.9
2023-04-21T20:01:55.631Z,4
2023-04-21T20:04:57.593Z,3.5
2023-04-21T20:07:59.419Z,3.2
2023-04-21T20:11:01.384Z,3.5
2023-04-21T20:14:03.352Z,3
2023-04-21T20:17:05.346Z,3.4
2023-04-21T20:20:07.316Z,3.5
2023-04-21T20:23:09.264Z,3.4
2023-04-21T20:26:11.205Z,3.9
2023-04-21T20:29:13.160Z,4.2
2023-04-21T20:32:15.120Z,4.2
2023-04-21T20:35:17.192Z,4.2
2023-04-21T20:38:19.044Z,4.3
2023-04-21T20:41:21.007Z,4.4
2023-04-21T20:44:22.941Z,4.4
2023-04-21T20:47:24.931Z,4.7
2023-04-21T20:50:26.925Z,4.2
2023-04-21T20:53:29.048Z,4.6
2023-04-21T20:56:30.821Z,3.6
2023-04-21T20:59:32.766Z,4.8
2023-04-21T21:02:34.849Z,4.3
2023-04-21T21:05:36.671Z,4.2
2023-04-21T21:08:38.649Z,4.1
2023-04-21T21:11:40.747Z,4.3
2023-04-21T21:14:42.562Z,4.4
2023-04-21T21:17:44.559Z,4.1
2023-04-21T21:20:46.509Z,4.3
2023-04-21T21:23:48.464Z,4.1
2023-04-21T21:26:50.419Z,4.9
2023-04-21T21:29:52.383Z,3.6
2023-04-21T21:32:54.377Z,4.5
2023-04-21T21:35:56.315Z,5
2023-04-21T21:38:58.263Z,4.6
2023-04-21T21:42:00.232Z,4.3
2023-04-21T21:45:02.245Z,4.2
2023-04-21T21:48:04.177Z,4.3
2023-04-21T21:51:06.106Z,4
2023-04-21T21:54:08.086Z,3.9
2023-04-21T21:57:10.022Z,4.3
2023-04-21T22:00:11.980Z,4.2
2023-04-21T22:03:14.072Z,5.5
2023-04-21T22:06:17.267Z,4.8
2023-04-21T22:09:18.093Z,5.4
2023-04-21T22:12:19.840Z,6.1
2023-04-21T22:15:21.790Z,5.6
2023-04-21T22:18:23.790Z,5.6
2023-04-21T22:21:25.767Z,6.5
2023-04-21T22:24:27.703Z,5.6
2023-04-21T22:27:29.677Z,6.1
2023-04-21T22:30:31.738Z,5.3
2023-04-21T22:33:33.610Z,5.5
2023-04-21T22:36:35.599Z,5.5
2023-04-21T22:39:37.737Z,5.2
2023-04-21T22:42:39.491Z,5.7
2023-04-21T22:45:41.629Z,6.1
2023-04-21T22:48:43.465Z,5.7
2023-04-21T22:51:45.392Z,5
2023-04-21T22:54:47.371Z,6.3
2023-04-21T22:57:49.331Z,5.9
2023-04-21T23:00:51.294Z,5.6
2023-04-21T23:03:53.311Z,5.5
2023-04-21T23:06:55.217Z,5.2
2023-04-21T23:09:57.226Z,6.4
2023-04-21T23:13:00.240Z,6
2023-04-21T23:16:01.173Z,5.8
2023-04-21T23:19:03.088Z,5.8
2023-04-21T23:22:05.061Z,5
2023-04-21T23:25:07.004Z,4.8
2023-04-21T23:28:08.969Z,6
2023-04-21T23:31:11.180Z,5.5
2023-04-21T23:34:12.887Z,5.5
2023-04-21T23:37:14.898Z,6.2
2023-04-21T23:40:16.824Z,7
2023-04-21T23:43:18.775Z,5.7
2023-04-21T23:46:20.754Z,5.8
2023-04-21T23:49:22.658Z,6.5
2023-04-21T23:52:24.636Z,5.5
2023-04-21T23:55:26.610Z,6.6
2023-04-21T23:58:28.538Z,5.8
